<?xml version="1.0" encoding="utf-8"?>
<gpx xmlns:xsi="http://www.w3.org/2001/XMLSchema-instance" xmlns:xsd="http://www.w3.org/2001/XMLSchema" version="1.1" creator="Shapelink.com" xmlns="http://www.topografix.com/GPX/1/1" xmlns:gpxtpx="http://www.garmin.com/xmlschemas/TrackPointExtension/v1">
  <metadata>
    <name>Løping 3.82 km, 2012-04-04</name>
    <desc></desc>
    <author><name>Mikael Blom</name></author> 
    <time>2012-04-04T17:19:14Z</time>
  </metadata>
  <trk>
    <name>Løping 3.82 km, 2012-04-04</name>
    <trkseg>
      <trkpt lat="59.9506014" lon="17.7098687">
        <ele>42.916</ele>
        <time>2012-04-04T17:19:14Z</time>
      </trkpt>
      <trkpt lat="59.9505541" lon="17.7098104">
        <ele>43.3966</ele>
        <time>2012-04-04T17:19:15Z</time>
      </trkpt>
      <trkpt lat="59.9504418" lon="17.7097522">
        <ele>43.3966</ele>
        <time>2012-04-04T17:19:19Z</time>
      </trkpt>
      <trkpt lat="59.9503761" lon="17.7096692">
        <ele>44.8386</ele>
        <time>2012-04-04T17:19:23Z</time>
      </trkpt>
      <trkpt lat="59.9503419" lon="17.7096426">
        <ele>45.3192</ele>
        <time>2012-04-04T17:19:25Z</time>
      </trkpt>
      <trkpt lat="59.9503082" lon="17.7096478">
        <ele>45.7999</ele>
        <time>2012-04-04T17:19:27Z</time>
      </trkpt>
      <trkpt lat="59.9502528" lon="17.7095901">
        <ele>47.2418</ele>
        <time>2012-04-04T17:19:31Z</time>
      </trkpt>
      <trkpt lat="59.9502369" lon="17.7095489">
        <ele>48.2034</ele>
        <time>2012-04-04T17:19:33Z</time>
      </trkpt>
      <trkpt lat="59.9501996" lon="17.7094748">
        <ele>49.6453</ele>
        <time>2012-04-04T17:19:38Z</time>
      </trkpt>
      <trkpt lat="59.9501649" lon="17.7094005">
        <ele>50.126</ele>
        <time>2012-04-04T17:19:42Z</time>
      </trkpt>
      <trkpt lat="59.9501096" lon="17.7093176">
        <ele>52.5292</ele>
        <time>2012-04-04T17:19:46Z</time>
      </trkpt>
      <trkpt lat="59.9500478" lon="17.7092261">
        <ele>55.8938</ele>
        <time>2012-04-04T17:19:51Z</time>
      </trkpt>
      <trkpt lat="59.9500025" lon="17.7091398">
        <ele>57.3358</ele>
        <time>2012-04-04T17:19:55Z</time>
      </trkpt>
      <trkpt lat="59.949985" lon="17.7090943">
        <ele>57.8165</ele>
        <time>2012-04-04T17:19:58Z</time>
      </trkpt>
      <trkpt lat="59.9499684" lon="17.7090518">
        <ele>58.2971</ele>
        <time>2012-04-04T17:20:03Z</time>
      </trkpt>
      <trkpt lat="59.9499415" lon="17.7090523">
        <ele>58.2971</ele>
        <time>2012-04-04T17:20:05Z</time>
      </trkpt>
      <trkpt lat="59.9499115" lon="17.7090886">
        <ele>57.3358</ele>
        <time>2012-04-04T17:20:08Z</time>
      </trkpt>
      <trkpt lat="59.9498792" lon="17.7092072">
        <ele>55.8938</ele>
        <time>2012-04-04T17:20:14Z</time>
      </trkpt>
      <trkpt lat="59.949873" lon="17.7092761">
        <ele>54.9324</ele>
        <time>2012-04-04T17:20:17Z</time>
      </trkpt>
      <trkpt lat="59.9498514" lon="17.709331">
        <ele>54.9324</ele>
        <time>2012-04-04T17:20:21Z</time>
      </trkpt>
      <trkpt lat="59.9498451" lon="17.7093413">
        <ele>54.9324</ele>
        <time>2012-04-04T17:20:22Z</time>
      </trkpt>
      <trkpt lat="59.9498333" lon="17.7093703">
        <ele>55.4131</ele>
        <time>2012-04-04T17:20:24Z</time>
      </trkpt>
      <trkpt lat="59.9498333" lon="17.70949">
        <ele>56.8551</ele>
        <time>2012-04-04T17:20:28Z</time>
      </trkpt>
      <trkpt lat="59.9498194" lon="17.7095856">
        <ele>56.8551</ele>
        <time>2012-04-04T17:20:33Z</time>
      </trkpt>
      <trkpt lat="59.9498453" lon="17.7096949">
        <ele>56.3745</ele>
        <time>2012-04-04T17:20:38Z</time>
      </trkpt>
      <trkpt lat="59.9499033" lon="17.7097593">
        <ele>54.9324</ele>
        <time>2012-04-04T17:20:44Z</time>
      </trkpt>
      <trkpt lat="59.9499403" lon="17.7098458">
        <ele>53.9712</ele>
        <time>2012-04-04T17:20:49Z</time>
      </trkpt>
      <trkpt lat="59.9499642" lon="17.7099541">
        <ele>53.4905</ele>
        <time>2012-04-04T17:20:54Z</time>
      </trkpt>
      <trkpt lat="59.9499625" lon="17.7100307">
        <ele>53.4905</ele>
        <time>2012-04-04T17:20:57Z</time>
      </trkpt>
      <trkpt lat="59.9499823" lon="17.7101836">
        <ele>52.5292</ele>
        <time>2012-04-04T17:21:05Z</time>
      </trkpt>
      <trkpt lat="59.9499969" lon="17.7102914">
        <ele>54.9324</ele>
        <time>2012-04-04T17:21:11Z</time>
      </trkpt>
      <trkpt lat="59.9500356" lon="17.7103272">
        <ele>55.4131</ele>
        <time>2012-04-04T17:21:16Z</time>
      </trkpt>
      <trkpt lat="59.9500492" lon="17.7103333">
        <ele>55.8938</ele>
        <time>2012-04-04T17:21:17Z</time>
      </trkpt>
      <trkpt lat="59.9501083" lon="17.7104134">
        <ele>54.9324</ele>
        <time>2012-04-04T17:21:23Z</time>
      </trkpt>
      <trkpt lat="59.9501623" lon="17.7104731">
        <ele>53.4905</ele>
        <time>2012-04-04T17:21:28Z</time>
      </trkpt>
      <trkpt lat="59.9502067" lon="17.7105726">
        <ele>52.5292</ele>
        <time>2012-04-04T17:21:33Z</time>
      </trkpt>
      <trkpt lat="59.9502141" lon="17.7106176">
        <ele>51.0872</ele>
        <time>2012-04-04T17:21:35Z</time>
      </trkpt>
      <trkpt lat="59.9502775" lon="17.710674">
        <ele>49.1646</ele>
        <time>2012-04-04T17:21:41Z</time>
      </trkpt>
      <trkpt lat="59.9503171" lon="17.710713">
        <ele>49.1646</ele>
        <time>2012-04-04T17:21:44Z</time>
      </trkpt>
      <trkpt lat="59.9503837" lon="17.7108415">
        <ele>48.2034</ele>
        <time>2012-04-04T17:21:51Z</time>
      </trkpt>
      <trkpt lat="59.9503923" lon="17.7108522">
        <ele>48.2034</ele>
        <time>2012-04-04T17:21:52Z</time>
      </trkpt>
      <trkpt lat="59.9504265" lon="17.7108895">
        <ele>46.2806</ele>
        <time>2012-04-04T17:21:57Z</time>
      </trkpt>
      <trkpt lat="59.9504367" lon="17.7108975">
        <ele>46.2806</ele>
        <time>2012-04-04T17:21:58Z</time>
      </trkpt>
      <trkpt lat="59.9504947" lon="17.7109923">
        <ele>42.916</ele>
        <time>2012-04-04T17:22:04Z</time>
      </trkpt>
      <trkpt lat="59.9505085" lon="17.7110549">
        <ele>40.9934</ele>
        <time>2012-04-04T17:22:07Z</time>
      </trkpt>
      <trkpt lat="59.9505422" lon="17.7111585">
        <ele>39.5513</ele>
        <time>2012-04-04T17:22:12Z</time>
      </trkpt>
      <trkpt lat="59.9505885" lon="17.7112115">
        <ele>36.6675</ele>
        <time>2012-04-04T17:22:16Z</time>
      </trkpt>
      <trkpt lat="59.9506003" lon="17.7113082">
        <ele>35.2255</ele>
        <time>2012-04-04T17:22:21Z</time>
      </trkpt>
      <trkpt lat="59.9506047" lon="17.7113186">
        <ele>36.1868</ele>
        <time>2012-04-04T17:22:27Z</time>
      </trkpt>
      <trkpt lat="59.9506046" lon="17.7113206">
        <ele>36.6675</ele>
        <time>2012-04-04T17:22:28Z</time>
      </trkpt>
      <trkpt lat="59.9505958" lon="17.7113155">
        <ele>37.1481</ele>
        <time>2012-04-04T17:22:29Z</time>
      </trkpt>
      <trkpt lat="59.9505399" lon="17.7112282">
        <ele>37.6287</ele>
        <time>2012-04-04T17:22:32Z</time>
      </trkpt>
      <trkpt lat="59.9504697" lon="17.7111087">
        <ele>38.5901</ele>
        <time>2012-04-04T17:22:36Z</time>
      </trkpt>
      <trkpt lat="59.9503788" lon="17.7109839">
        <ele>40.5128</ele>
        <time>2012-04-04T17:22:39Z</time>
      </trkpt>
      <trkpt lat="59.95032" lon="17.7108844">
        <ele>41.9547</ele>
        <time>2012-04-04T17:22:42Z</time>
      </trkpt>
      <trkpt lat="59.9502878" lon="17.7107576">
        <ele>42.916</ele>
        <time>2012-04-04T17:22:46Z</time>
      </trkpt>
      <trkpt lat="59.9502237" lon="17.710708">
        <ele>43.3966</ele>
        <time>2012-04-04T17:22:50Z</time>
      </trkpt>
      <trkpt lat="59.950201" lon="17.7106937">
        <ele>43.8773</ele>
        <time>2012-04-04T17:22:51Z</time>
      </trkpt>
      <trkpt lat="59.9501658" lon="17.7106452">
        <ele>43.8773</ele>
        <time>2012-04-04T17:22:53Z</time>
      </trkpt>
      <trkpt lat="59.9501057" lon="17.7105025">
        <ele>44.8386</ele>
        <time>2012-04-04T17:22:58Z</time>
      </trkpt>
      <trkpt lat="59.9500319" lon="17.71041">
        <ele>45.7999</ele>
        <time>2012-04-04T17:23:02Z</time>
      </trkpt>
      <trkpt lat="59.9499643" lon="17.7103148">
        <ele>47.2418</ele>
        <time>2012-04-04T17:23:05Z</time>
      </trkpt>
      <trkpt lat="59.9499081" lon="17.7102032">
        <ele>49.1646</ele>
        <time>2012-04-04T17:23:09Z</time>
      </trkpt>
      <trkpt lat="59.9498751" lon="17.710194">
        <ele>51.5679</ele>
        <time>2012-04-04T17:23:15Z</time>
      </trkpt>
      <trkpt lat="59.9498757" lon="17.710195">
        <ele>52.0486</ele>
        <time>2012-04-04T17:23:16Z</time>
      </trkpt>
      <trkpt lat="59.9498125" lon="17.71005">
        <ele>53.9712</ele>
        <time>2012-04-04T17:23:21Z</time>
      </trkpt>
      <trkpt lat="59.9497809" lon="17.7099945">
        <ele>54.9324</ele>
        <time>2012-04-04T17:23:24Z</time>
      </trkpt>
      <trkpt lat="59.9497715" lon="17.709976">
        <ele>54.9324</ele>
        <time>2012-04-04T17:23:25Z</time>
      </trkpt>
      <trkpt lat="59.9497074" lon="17.7099941">
        <ele>57.3358</ele>
        <time>2012-04-04T17:23:31Z</time>
      </trkpt>
      <trkpt lat="59.9496869" lon="17.7100249">
        <ele>58.2971</ele>
        <time>2012-04-04T17:23:33Z</time>
      </trkpt>
      <trkpt lat="59.9496716" lon="17.7100878">
        <ele>60.2197</ele>
        <time>2012-04-04T17:23:38Z</time>
      </trkpt>
      <trkpt lat="59.949679" lon="17.7101945">
        <ele>61.181</ele>
        <time>2012-04-04T17:23:43Z</time>
      </trkpt>
      <trkpt lat="59.9497017" lon="17.7102447">
        <ele>61.6617</ele>
        <time>2012-04-04T17:23:48Z</time>
      </trkpt>
      <trkpt lat="59.9497022" lon="17.7103416">
        <ele>62.1423</ele>
        <time>2012-04-04T17:23:53Z</time>
      </trkpt>
      <trkpt lat="59.9497182" lon="17.7104833">
        <ele>61.6617</ele>
        <time>2012-04-04T17:23:59Z</time>
      </trkpt>
      <trkpt lat="59.9497168" lon="17.7105776">
        <ele>61.181</ele>
        <time>2012-04-04T17:24:03Z</time>
      </trkpt>
      <trkpt lat="59.9497373" lon="17.7107266">
        <ele>60.2197</ele>
        <time>2012-04-04T17:24:10Z</time>
      </trkpt>
      <trkpt lat="59.9497507" lon="17.7108315">
        <ele>58.7777</ele>
        <time>2012-04-04T17:24:14Z</time>
      </trkpt>
      <trkpt lat="59.9497965" lon="17.7108467">
        <ele>58.2971</ele>
        <time>2012-04-04T17:24:18Z</time>
      </trkpt>
      <trkpt lat="59.9498491" lon="17.7108529">
        <ele>56.8551</ele>
        <time>2012-04-04T17:24:22Z</time>
      </trkpt>
      <trkpt lat="59.949912" lon="17.7107788">
        <ele>55.8938</ele>
        <time>2012-04-04T17:24:28Z</time>
      </trkpt>
      <trkpt lat="59.9499625" lon="17.710747">
        <ele>55.8938</ele>
        <time>2012-04-04T17:24:32Z</time>
      </trkpt>
      <trkpt lat="59.9500126" lon="17.7107023">
        <ele>55.8938</ele>
        <time>2012-04-04T17:24:35Z</time>
      </trkpt>
      <trkpt lat="59.9500248" lon="17.7106861">
        <ele>55.4131</ele>
        <time>2012-04-04T17:24:36Z</time>
      </trkpt>
      <trkpt lat="59.9500839" lon="17.7106751">
        <ele>55.8938</ele>
        <time>2012-04-04T17:24:41Z</time>
      </trkpt>
      <trkpt lat="59.9501481" lon="17.7107137">
        <ele>54.9324</ele>
        <time>2012-04-04T17:24:46Z</time>
      </trkpt>
      <trkpt lat="59.9501728" lon="17.7107348">
        <ele>53.4905</ele>
        <time>2012-04-04T17:24:48Z</time>
      </trkpt>
      <trkpt lat="59.9501905" lon="17.7107623">
        <ele>52.5292</ele>
        <time>2012-04-04T17:24:50Z</time>
      </trkpt>
      <trkpt lat="59.9502273" lon="17.7108902">
        <ele>49.6453</ele>
        <time>2012-04-04T17:24:57Z</time>
      </trkpt>
      <trkpt lat="59.9502387" lon="17.7110331">
        <ele>47.2418</ele>
        <time>2012-04-04T17:25:03Z</time>
      </trkpt>
      <trkpt lat="59.9502393" lon="17.711178">
        <ele>46.7612</ele>
        <time>2012-04-04T17:25:09Z</time>
      </trkpt>
      <trkpt lat="59.9502441" lon="17.7112072">
        <ele>46.7612</ele>
        <time>2012-04-04T17:25:10Z</time>
      </trkpt>
      <trkpt lat="59.9502348" lon="17.71125">
        <ele>45.7999</ele>
        <time>2012-04-04T17:25:16Z</time>
      </trkpt>
      <trkpt lat="59.9502338" lon="17.7112511">
        <ele>45.3192</ele>
        <time>2012-04-04T17:25:24Z</time>
      </trkpt>
      <trkpt lat="59.9502316" lon="17.7112206">
        <ele>49.6453</ele>
        <time>2012-04-04T17:25:33Z</time>
      </trkpt>
      <trkpt lat="59.9502306" lon="17.7112171">
        <ele>50.126</ele>
        <time>2012-04-04T17:25:34Z</time>
      </trkpt>
      <trkpt lat="59.9502176" lon="17.7111807">
        <ele>51.0872</ele>
        <time>2012-04-04T17:25:36Z</time>
      </trkpt>
      <trkpt lat="59.9502347" lon="17.7109692">
        <ele>50.126</ele>
        <time>2012-04-04T17:25:41Z</time>
      </trkpt>
      <trkpt lat="59.9501858" lon="17.7107954">
        <ele>47.7225</ele>
        <time>2012-04-04T17:25:44Z</time>
      </trkpt>
      <trkpt lat="59.9501787" lon="17.7107731">
        <ele>47.2418</ele>
        <time>2012-04-04T17:25:45Z</time>
      </trkpt>
      <trkpt lat="59.9501563" lon="17.7107286">
        <ele>46.7612</ele>
        <time>2012-04-04T17:25:47Z</time>
      </trkpt>
      <trkpt lat="59.9500446" lon="17.7106395">
        <ele>45.7999</ele>
        <time>2012-04-04T17:25:53Z</time>
      </trkpt>
      <trkpt lat="59.9499405" lon="17.7106502">
        <ele>45.3192</ele>
        <time>2012-04-04T17:25:57Z</time>
      </trkpt>
      <trkpt lat="59.9499019" lon="17.7106835">
        <ele>45.7999</ele>
        <time>2012-04-04T17:25:59Z</time>
      </trkpt>
      <trkpt lat="59.9498128" lon="17.7107207">
        <ele>46.7612</ele>
        <time>2012-04-04T17:26:03Z</time>
      </trkpt>
      <trkpt lat="59.9497458" lon="17.7107405">
        <ele>49.6453</ele>
        <time>2012-04-04T17:26:07Z</time>
      </trkpt>
      <trkpt lat="59.9497069" lon="17.7107057">
        <ele>53.0098</ele>
        <time>2012-04-04T17:26:11Z</time>
      </trkpt>
      <trkpt lat="59.9497028" lon="17.7106969">
        <ele>53.4905</ele>
        <time>2012-04-04T17:26:12Z</time>
      </trkpt>
      <trkpt lat="59.9496552" lon="17.7105166">
        <ele>56.8551</ele>
        <time>2012-04-04T17:26:17Z</time>
      </trkpt>
      <trkpt lat="59.9495785" lon="17.7104117">
        <ele>58.2971</ele>
        <time>2012-04-04T17:26:22Z</time>
      </trkpt>
      <trkpt lat="59.9495545" lon="17.7103474">
        <ele>59.2584</ele>
        <time>2012-04-04T17:26:25Z</time>
      </trkpt>
      <trkpt lat="59.9495104" lon="17.7103577">
        <ele>61.181</ele>
        <time>2012-04-04T17:26:32Z</time>
      </trkpt>
      <trkpt lat="59.9495227" lon="17.7104131">
        <ele>61.6617</ele>
        <time>2012-04-04T17:26:40Z</time>
      </trkpt>
      <trkpt lat="59.9495324" lon="17.7105203">
        <ele>62.6229</ele>
        <time>2012-04-04T17:26:45Z</time>
      </trkpt>
      <trkpt lat="59.9495445" lon="17.7106942">
        <ele>61.181</ele>
        <time>2012-04-04T17:26:48Z</time>
      </trkpt>
      <trkpt lat="59.9495043" lon="17.7107722">
        <ele>59.2584</ele>
        <time>2012-04-04T17:26:53Z</time>
      </trkpt>
      <trkpt lat="59.9494606" lon="17.7108535">
        <ele>58.2971</ele>
        <time>2012-04-04T17:26:59Z</time>
      </trkpt>
      <trkpt lat="59.9494217" lon="17.7109162">
        <ele>57.8165</ele>
        <time>2012-04-04T17:27:03Z</time>
      </trkpt>
      <trkpt lat="59.9493884" lon="17.7109635">
        <ele>56.8551</ele>
        <time>2012-04-04T17:27:06Z</time>
      </trkpt>
      <trkpt lat="59.9493924" lon="17.7110563">
        <ele>55.4131</ele>
        <time>2012-04-04T17:27:11Z</time>
      </trkpt>
      <trkpt lat="59.9494308" lon="17.7111072">
        <ele>53.9712</ele>
        <time>2012-04-04T17:27:15Z</time>
      </trkpt>
      <trkpt lat="59.9494836" lon="17.7111379">
        <ele>52.5292</ele>
        <time>2012-04-04T17:27:19Z</time>
      </trkpt>
      <trkpt lat="59.9495225" lon="17.7111585">
        <ele>51.5679</ele>
        <time>2012-04-04T17:27:22Z</time>
      </trkpt>
      <trkpt lat="59.9496006" lon="17.711148">
        <ele>50.126</ele>
        <time>2012-04-04T17:27:28Z</time>
      </trkpt>
      <trkpt lat="59.9496145" lon="17.7111417">
        <ele>50.126</ele>
        <time>2012-04-04T17:27:29Z</time>
      </trkpt>
      <trkpt lat="59.9497018" lon="17.7111201">
        <ele>50.126</ele>
        <time>2012-04-04T17:27:36Z</time>
      </trkpt>
      <trkpt lat="59.9497229" lon="17.7111056">
        <ele>49.6453</ele>
        <time>2012-04-04T17:27:37Z</time>
      </trkpt>
      <trkpt lat="59.9498022" lon="17.7110776">
        <ele>49.1646</ele>
        <time>2012-04-04T17:27:42Z</time>
      </trkpt>
      <trkpt lat="59.9498347" lon="17.7110958">
        <ele>49.1646</ele>
        <time>2012-04-04T17:27:45Z</time>
      </trkpt>
      <trkpt lat="59.9499218" lon="17.7110172">
        <ele>48.684</ele>
        <time>2012-04-04T17:27:52Z</time>
      </trkpt>
      <trkpt lat="59.9499678" lon="17.7109498">
        <ele>48.2034</ele>
        <time>2012-04-04T17:27:56Z</time>
      </trkpt>
      <trkpt lat="59.9500011" lon="17.7109026">
        <ele>46.7612</ele>
        <time>2012-04-04T17:27:59Z</time>
      </trkpt>
      <trkpt lat="59.9500611" lon="17.7108636">
        <ele>46.7612</ele>
        <time>2012-04-04T17:28:04Z</time>
      </trkpt>
      <trkpt lat="59.9500916" lon="17.7108763">
        <ele>46.7612</ele>
        <time>2012-04-04T17:28:06Z</time>
      </trkpt>
      <trkpt lat="59.9501371" lon="17.7109829">
        <ele>45.7999</ele>
        <time>2012-04-04T17:28:10Z</time>
      </trkpt>
      <trkpt lat="59.9501305" lon="17.7111281">
        <ele>43.3966</ele>
        <time>2012-04-04T17:28:15Z</time>
      </trkpt>
      <trkpt lat="59.9501244" lon="17.7111543">
        <ele>42.916</ele>
        <time>2012-04-04T17:28:16Z</time>
      </trkpt>
      <trkpt lat="59.9500864" lon="17.7112453">
        <ele>41.474</ele>
        <time>2012-04-04T17:28:21Z</time>
      </trkpt>
      <trkpt lat="59.9500705" lon="17.7113024">
        <ele>40.9934</ele>
        <time>2012-04-04T17:28:23Z</time>
      </trkpt>
      <trkpt lat="59.9500467" lon="17.7114143">
        <ele>39.5513</ele>
        <time>2012-04-04T17:28:28Z</time>
      </trkpt>
      <trkpt lat="59.950024" lon="17.7114857">
        <ele>39.0707</ele>
        <time>2012-04-04T17:28:31Z</time>
      </trkpt>
      <trkpt lat="59.9499994" lon="17.7114854">
        <ele>38.5901</ele>
        <time>2012-04-04T17:28:39Z</time>
      </trkpt>
      <trkpt lat="59.9499949" lon="17.7114828">
        <ele>39.5513</ele>
        <time>2012-04-04T17:28:44Z</time>
      </trkpt>
      <trkpt lat="59.9499979" lon="17.7114677">
        <ele>40.0321</ele>
        <time>2012-04-04T17:28:46Z</time>
      </trkpt>
      <trkpt lat="59.9500539" lon="17.7113321">
        <ele>40.0321</ele>
        <time>2012-04-04T17:28:50Z</time>
      </trkpt>
      <trkpt lat="59.9500962" lon="17.7111796">
        <ele>41.9547</ele>
        <time>2012-04-04T17:28:54Z</time>
      </trkpt>
      <trkpt lat="59.9500939" lon="17.7109234">
        <ele>46.2806</ele>
        <time>2012-04-04T17:28:59Z</time>
      </trkpt>
      <trkpt lat="59.9500139" lon="17.7109043">
        <ele>49.1646</ele>
        <time>2012-04-04T17:29:03Z</time>
      </trkpt>
      <trkpt lat="59.9499102" lon="17.7109853">
        <ele>51.5679</ele>
        <time>2012-04-04T17:29:08Z</time>
      </trkpt>
      <trkpt lat="59.9497835" lon="17.7111487">
        <ele>53.0098</ele>
        <time>2012-04-04T17:29:13Z</time>
      </trkpt>
      <trkpt lat="59.9497188" lon="17.7111875">
        <ele>53.9712</ele>
        <time>2012-04-04T17:29:17Z</time>
      </trkpt>
      <trkpt lat="59.9496458" lon="17.7111523">
        <ele>54.9324</ele>
        <time>2012-04-04T17:29:20Z</time>
      </trkpt>
      <trkpt lat="59.9496236" lon="17.7111329">
        <ele>55.4131</ele>
        <time>2012-04-04T17:29:21Z</time>
      </trkpt>
      <trkpt lat="59.9494944" lon="17.7110604">
        <ele>56.3745</ele>
        <time>2012-04-04T17:29:26Z</time>
      </trkpt>
      <trkpt lat="59.94941" lon="17.7110196">
        <ele>57.3358</ele>
        <time>2012-04-04T17:29:30Z</time>
      </trkpt>
      <trkpt lat="59.9493497" lon="17.7109119">
        <ele>59.2584</ele>
        <time>2012-04-04T17:29:34Z</time>
      </trkpt>
      <trkpt lat="59.9493852" lon="17.7107311">
        <ele>59.7391</ele>
        <time>2012-04-04T17:29:40Z</time>
      </trkpt>
      <trkpt lat="59.949456" lon="17.7106276">
        <ele>60.7003</ele>
        <time>2012-04-04T17:29:44Z</time>
      </trkpt>
      <trkpt lat="59.9495282" lon="17.710538">
        <ele>61.6617</ele>
        <time>2012-04-04T17:29:48Z</time>
      </trkpt>
      <trkpt lat="59.9495312" lon="17.7104469">
        <ele>63.1036</ele>
        <time>2012-04-04T17:29:56Z</time>
      </trkpt>
      <trkpt lat="59.9494684" lon="17.7104924">
        <ele>63.1036</ele>
        <time>2012-04-04T17:30:02Z</time>
      </trkpt>
      <trkpt lat="59.9494334" lon="17.7105965">
        <ele>63.5844</ele>
        <time>2012-04-04T17:30:06Z</time>
      </trkpt>
      <trkpt lat="59.9493974" lon="17.7106888">
        <ele>63.1036</ele>
        <time>2012-04-04T17:30:10Z</time>
      </trkpt>
      <trkpt lat="59.9493811" lon="17.7107364">
        <ele>62.6229</ele>
        <time>2012-04-04T17:30:12Z</time>
      </trkpt>
      <trkpt lat="59.9493255" lon="17.7108252">
        <ele>62.1423</ele>
        <time>2012-04-04T17:30:21Z</time>
      </trkpt>
      <trkpt lat="59.9492959" lon="17.7108765">
        <ele>61.181</ele>
        <time>2012-04-04T17:30:25Z</time>
      </trkpt>
      <trkpt lat="59.9492943" lon="17.7109333">
        <ele>60.7003</ele>
        <time>2012-04-04T17:30:29Z</time>
      </trkpt>
      <trkpt lat="59.9492903" lon="17.7110073">
        <ele>60.2197</ele>
        <time>2012-04-04T17:30:33Z</time>
      </trkpt>
      <trkpt lat="59.9493063" lon="17.7110957">
        <ele>60.2197</ele>
        <time>2012-04-04T17:30:37Z</time>
      </trkpt>
      <trkpt lat="59.94932" lon="17.7112113">
        <ele>59.2584</ele>
        <time>2012-04-04T17:30:41Z</time>
      </trkpt>
      <trkpt lat="59.9493308" lon="17.7112999">
        <ele>57.3358</ele>
        <time>2012-04-04T17:30:45Z</time>
      </trkpt>
      <trkpt lat="59.9493378" lon="17.7113413">
        <ele>56.3745</ele>
        <time>2012-04-04T17:30:49Z</time>
      </trkpt>
      <trkpt lat="59.9493425" lon="17.7114734">
        <ele>53.9712</ele>
        <time>2012-04-04T17:30:53Z</time>
      </trkpt>
      <trkpt lat="59.9493422" lon="17.7115324">
        <ele>52.0486</ele>
        <time>2012-04-04T17:30:55Z</time>
      </trkpt>
      <trkpt lat="59.9493485" lon="17.7116304">
        <ele>49.6453</ele>
        <time>2012-04-04T17:31:00Z</time>
      </trkpt>
      <trkpt lat="59.9493437" lon="17.7116728">
        <ele>48.2034</ele>
        <time>2012-04-04T17:31:04Z</time>
      </trkpt>
      <trkpt lat="59.9493308" lon="17.7118297">
        <ele>44.8386</ele>
        <time>2012-04-04T17:31:08Z</time>
      </trkpt>
      <trkpt lat="59.9493314" lon="17.7118791">
        <ele>42.4354</ele>
        <time>2012-04-04T17:31:10Z</time>
      </trkpt>
      <trkpt lat="59.9493551" lon="17.7120081">
        <ele>40.5128</ele>
        <time>2012-04-04T17:31:16Z</time>
      </trkpt>
      <trkpt lat="59.9493789" lon="17.7121499">
        <ele>39.0707</ele>
        <time>2012-04-04T17:31:22Z</time>
      </trkpt>
      <trkpt lat="59.9493831" lon="17.7121832">
        <ele>38.5901</ele>
        <time>2012-04-04T17:31:24Z</time>
      </trkpt>
      <trkpt lat="59.9494111" lon="17.7122272">
        <ele>41.9547</ele>
        <time>2012-04-04T17:31:32Z</time>
      </trkpt>
      <trkpt lat="59.9493777" lon="17.712225">
        <ele>43.3966</ele>
        <time>2012-04-04T17:31:37Z</time>
      </trkpt>
      <trkpt lat="59.9493577" lon="17.7122271">
        <ele>44.358</ele>
        <time>2012-04-04T17:31:43Z</time>
      </trkpt>
      <trkpt lat="59.9493442" lon="17.7122085">
        <ele>46.2806</ele>
        <time>2012-04-04T17:31:48Z</time>
      </trkpt>
      <trkpt lat="59.9493427" lon="17.7121858">
        <ele>47.2418</ele>
        <time>2012-04-04T17:31:57Z</time>
      </trkpt>
      <trkpt lat="59.949353" lon="17.7121343">
        <ele>47.7225</ele>
        <time>2012-04-04T17:32:03Z</time>
      </trkpt>
      <trkpt lat="59.9493525" lon="17.7121237">
        <ele>47.7225</ele>
        <time>2012-04-04T17:32:04Z</time>
      </trkpt>
      <trkpt lat="59.9493474" lon="17.7120857">
        <ele>47.7225</ele>
        <time>2012-04-04T17:32:06Z</time>
      </trkpt>
      <trkpt lat="59.9493296" lon="17.7119537">
        <ele>45.3192</ele>
        <time>2012-04-04T17:32:09Z</time>
      </trkpt>
      <trkpt lat="59.9493169" lon="17.7117734">
        <ele>47.2418</ele>
        <time>2012-04-04T17:32:13Z</time>
      </trkpt>
      <trkpt lat="59.9493588" lon="17.7115706">
        <ele>51.0872</ele>
        <time>2012-04-04T17:32:18Z</time>
      </trkpt>
      <trkpt lat="59.9493717" lon="17.7114402">
        <ele>53.0098</ele>
        <time>2012-04-04T17:32:21Z</time>
      </trkpt>
      <trkpt lat="59.9493578" lon="17.7113028">
        <ele>53.4905</ele>
        <time>2012-04-04T17:32:24Z</time>
      </trkpt>
      <trkpt lat="59.9493642" lon="17.7111513">
        <ele>53.9712</ele>
        <time>2012-04-04T17:32:28Z</time>
      </trkpt>
      <trkpt lat="59.9493505" lon="17.7110022">
        <ele>52.0486</ele>
        <time>2012-04-04T17:32:31Z</time>
      </trkpt>
      <trkpt lat="59.949355" lon="17.7108928">
        <ele>51.0872</ele>
        <time>2012-04-04T17:32:34Z</time>
      </trkpt>
      <trkpt lat="59.9493927" lon="17.7107831">
        <ele>49.6453</ele>
        <time>2012-04-04T17:32:38Z</time>
      </trkpt>
      <trkpt lat="59.9494313" lon="17.7106881">
        <ele>51.0872</ele>
        <time>2012-04-04T17:32:42Z</time>
      </trkpt>
      <trkpt lat="59.9494663" lon="17.7105747">
        <ele>51.5679</ele>
        <time>2012-04-04T17:32:45Z</time>
      </trkpt>
      <trkpt lat="59.9495225" lon="17.7104892">
        <ele>53.0098</ele>
        <time>2012-04-04T17:32:49Z</time>
      </trkpt>
      <trkpt lat="59.9495683" lon="17.7104246">
        <ele>54.9324</ele>
        <time>2012-04-04T17:32:52Z</time>
      </trkpt>
      <trkpt lat="59.9495767" lon="17.7103986">
        <ele>55.8938</ele>
        <time>2012-04-04T17:32:54Z</time>
      </trkpt>
      <trkpt lat="59.9495751" lon="17.7103655">
        <ele>58.2971</ele>
        <time>2012-04-04T17:33:02Z</time>
      </trkpt>
      <trkpt lat="59.9495359" lon="17.7103595">
        <ele>58.7777</ele>
        <time>2012-04-04T17:33:08Z</time>
      </trkpt>
      <trkpt lat="59.9494652" lon="17.7104064">
        <ele>59.2584</ele>
        <time>2012-04-04T17:33:14Z</time>
      </trkpt>
      <trkpt lat="59.9494306" lon="17.710426">
        <ele>59.7391</ele>
        <time>2012-04-04T17:33:17Z</time>
      </trkpt>
      <trkpt lat="59.9493695" lon="17.7105282">
        <ele>59.2584</ele>
        <time>2012-04-04T17:33:23Z</time>
      </trkpt>
      <trkpt lat="59.9493298" lon="17.7105619">
        <ele>58.2971</ele>
        <time>2012-04-04T17:33:26Z</time>
      </trkpt>
      <trkpt lat="59.9492987" lon="17.7105794">
        <ele>57.8165</ele>
        <time>2012-04-04T17:33:29Z</time>
      </trkpt>
      <trkpt lat="59.9492278" lon="17.7105968">
        <ele>55.8938</ele>
        <time>2012-04-04T17:33:36Z</time>
      </trkpt>
      <trkpt lat="59.949219" lon="17.710601">
        <ele>55.8938</ele>
        <time>2012-04-04T17:33:37Z</time>
      </trkpt>
      <trkpt lat="59.949191" lon="17.7106408">
        <ele>55.4131</ele>
        <time>2012-04-04T17:33:40Z</time>
      </trkpt>
      <trkpt lat="59.949134" lon="17.7107318">
        <ele>53.9712</ele>
        <time>2012-04-04T17:33:45Z</time>
      </trkpt>
      <trkpt lat="59.9491105" lon="17.7108373">
        <ele>53.4905</ele>
        <time>2012-04-04T17:33:48Z</time>
      </trkpt>
      <trkpt lat="59.9491513" lon="17.7109848">
        <ele>54.9324</ele>
        <time>2012-04-04T17:33:53Z</time>
      </trkpt>
      <trkpt lat="59.9492064" lon="17.71113">
        <ele>55.8938</ele>
        <time>2012-04-04T17:33:58Z</time>
      </trkpt>
      <trkpt lat="59.9492401" lon="17.7111894">
        <ele>54.9324</ele>
        <time>2012-04-04T17:34:03Z</time>
      </trkpt>
      <trkpt lat="59.9492101" lon="17.7113033">
        <ele>53.9712</ele>
        <time>2012-04-04T17:34:09Z</time>
      </trkpt>
      <trkpt lat="59.949161" lon="17.7112652">
        <ele>53.4905</ele>
        <time>2012-04-04T17:34:13Z</time>
      </trkpt>
      <trkpt lat="59.94915" lon="17.7112633">
        <ele>53.4905</ele>
        <time>2012-04-04T17:34:14Z</time>
      </trkpt>
      <trkpt lat="59.9490662" lon="17.7112191">
        <ele>53.9712</ele>
        <time>2012-04-04T17:34:19Z</time>
      </trkpt>
      <trkpt lat="59.9489904" lon="17.7111703">
        <ele>53.4905</ele>
        <time>2012-04-04T17:34:26Z</time>
      </trkpt>
      <trkpt lat="59.9489713" lon="17.7111485">
        <ele>53.9712</ele>
        <time>2012-04-04T17:34:28Z</time>
      </trkpt>
      <trkpt lat="59.9489086" lon="17.7111252">
        <ele>53.9712</ele>
        <time>2012-04-04T17:34:33Z</time>
      </trkpt>
      <trkpt lat="59.9488853" lon="17.7111298">
        <ele>54.4518</ele>
        <time>2012-04-04T17:34:35Z</time>
      </trkpt>
      <trkpt lat="59.9488221" lon="17.7111461">
        <ele>53.0098</ele>
        <time>2012-04-04T17:34:41Z</time>
      </trkpt>
      <trkpt lat="59.9487913" lon="17.7111881">
        <ele>52.0486</ele>
        <time>2012-04-04T17:34:45Z</time>
      </trkpt>
      <trkpt lat="59.9487331" lon="17.7112284">
        <ele>50.126</ele>
        <time>2012-04-04T17:34:52Z</time>
      </trkpt>
      <trkpt lat="59.9486965" lon="17.7112704">
        <ele>49.1646</ele>
        <time>2012-04-04T17:34:56Z</time>
      </trkpt>
      <trkpt lat="59.9486812" lon="17.7112951">
        <ele>48.684</ele>
        <time>2012-04-04T17:34:57Z</time>
      </trkpt>
      <trkpt lat="59.9486815" lon="17.7114621">
        <ele>46.7612</ele>
        <time>2012-04-04T17:35:01Z</time>
      </trkpt>
      <trkpt lat="59.948652" lon="17.7115152">
        <ele>45.7999</ele>
        <time>2012-04-04T17:35:04Z</time>
      </trkpt>
      <trkpt lat="59.9485859" lon="17.7115408">
        <ele>46.2806</ele>
        <time>2012-04-04T17:35:11Z</time>
      </trkpt>
      <trkpt lat="59.9485526" lon="17.7116022">
        <ele>45.7999</ele>
        <time>2012-04-04T17:35:18Z</time>
      </trkpt>
      <trkpt lat="59.9485349" lon="17.7115486">
        <ele>45.3192</ele>
        <time>2012-04-04T17:35:33Z</time>
      </trkpt>
      <trkpt lat="59.9485306" lon="17.7115214">
        <ele>45.7999</ele>
        <time>2012-04-04T17:35:39Z</time>
      </trkpt>
      <trkpt lat="59.948534" lon="17.7115064">
        <ele>45.7999</ele>
        <time>2012-04-04T17:35:40Z</time>
      </trkpt>
      <trkpt lat="59.9485658" lon="17.7113432">
        <ele>46.2806</ele>
        <time>2012-04-04T17:35:44Z</time>
      </trkpt>
      <trkpt lat="59.9486292" lon="17.7112611">
        <ele>48.684</ele>
        <time>2012-04-04T17:35:47Z</time>
      </trkpt>
      <trkpt lat="59.9486926" lon="17.7111593">
        <ele>48.2034</ele>
        <time>2012-04-04T17:35:51Z</time>
      </trkpt>
      <trkpt lat="59.948738" lon="17.7111234">
        <ele>50.6066</ele>
        <time>2012-04-04T17:35:54Z</time>
      </trkpt>
      <trkpt lat="59.9488882" lon="17.7110363">
        <ele>53.0098</ele>
        <time>2012-04-04T17:36:01Z</time>
      </trkpt>
      <trkpt lat="59.9489921" lon="17.711088">
        <ele>55.8938</ele>
        <time>2012-04-04T17:36:06Z</time>
      </trkpt>
      <trkpt lat="59.9490733" lon="17.7112049">
        <ele>57.3358</ele>
        <time>2012-04-04T17:36:11Z</time>
      </trkpt>
      <trkpt lat="59.949156" lon="17.7112591">
        <ele>57.3358</ele>
        <time>2012-04-04T17:36:16Z</time>
      </trkpt>
      <trkpt lat="59.949243" lon="17.7112279">
        <ele>55.4131</ele>
        <time>2012-04-04T17:36:21Z</time>
      </trkpt>
      <trkpt lat="59.9492399" lon="17.7111166">
        <ele>55.8938</ele>
        <time>2012-04-04T17:36:25Z</time>
      </trkpt>
      <trkpt lat="59.9492107" lon="17.7109606">
        <ele>56.8551</ele>
        <time>2012-04-04T17:36:29Z</time>
      </trkpt>
      <trkpt lat="59.9491851" lon="17.7108343">
        <ele>58.7777</ele>
        <time>2012-04-04T17:36:31Z</time>
      </trkpt>
      <trkpt lat="59.9492422" lon="17.7106726">
        <ele>60.7003</ele>
        <time>2012-04-04T17:36:36Z</time>
      </trkpt>
      <trkpt lat="59.9493039" lon="17.7106115">
        <ele>64.0651</ele>
        <time>2012-04-04T17:36:41Z</time>
      </trkpt>
      <trkpt lat="59.9494069" lon="17.7105474">
        <ele>65.9877</ele>
        <time>2012-04-04T17:36:47Z</time>
      </trkpt>
      <trkpt lat="59.9495069" lon="17.7104799">
        <ele>66.4683</ele>
        <time>2012-04-04T17:36:53Z</time>
      </trkpt>
      <trkpt lat="59.9495187" lon="17.7104696">
        <ele>66.4683</ele>
        <time>2012-04-04T17:36:54Z</time>
      </trkpt>
      <trkpt lat="59.9495362" lon="17.7104598">
        <ele>65.9877</ele>
        <time>2012-04-04T17:36:56Z</time>
      </trkpt>
      <trkpt lat="59.9495342" lon="17.7104447">
        <ele>65.9877</ele>
        <time>2012-04-04T17:37:03Z</time>
      </trkpt>
      <trkpt lat="59.9495551" lon="17.7103908">
        <ele>66.949</ele>
        <time>2012-04-04T17:37:09Z</time>
      </trkpt>
      <trkpt lat="59.9495622" lon="17.7103613">
        <ele>66.949</ele>
        <time>2012-04-04T17:37:13Z</time>
      </trkpt>
      <trkpt lat="59.9495572" lon="17.7103555">
        <ele>66.4683</ele>
        <time>2012-04-04T17:37:24Z</time>
      </trkpt>
      <trkpt lat="59.9495321" lon="17.7103406">
        <ele>67.4297</ele>
        <time>2012-04-04T17:37:40Z</time>
      </trkpt>
      <trkpt lat="59.9495188" lon="17.7103254">
        <ele>66.949</ele>
        <time>2012-04-04T17:37:45Z</time>
      </trkpt>
      <trkpt lat="59.9495145" lon="17.7103148">
        <ele>65.9877</ele>
        <time>2012-04-04T17:37:51Z</time>
      </trkpt>
      <trkpt lat="59.9495139" lon="17.7103168">
        <ele>65.9877</ele>
        <time>2012-04-04T17:37:56Z</time>
      </trkpt>
      <trkpt lat="59.9494939" lon="17.7102948">
        <ele>65.0264</ele>
        <time>2012-04-04T17:38:08Z</time>
      </trkpt>
      <trkpt lat="59.949482" lon="17.7102622">
        <ele>65.0264</ele>
        <time>2012-04-04T17:38:13Z</time>
      </trkpt>
      <trkpt lat="59.9494369" lon="17.7103311">
        <ele>64.0651</ele>
        <time>2012-04-04T17:38:18Z</time>
      </trkpt>
      <trkpt lat="59.9494183" lon="17.7103629">
        <ele>63.5844</ele>
        <time>2012-04-04T17:38:20Z</time>
      </trkpt>
      <trkpt lat="59.9493541" lon="17.7104571">
        <ele>63.1036</ele>
        <time>2012-04-04T17:38:27Z</time>
      </trkpt>
      <trkpt lat="59.9492806" lon="17.7104922">
        <ele>59.7391</ele>
        <time>2012-04-04T17:38:34Z</time>
      </trkpt>
      <trkpt lat="59.9492736" lon="17.7104944">
        <ele>59.2584</ele>
        <time>2012-04-04T17:38:35Z</time>
      </trkpt>
      <trkpt lat="59.9492287" lon="17.7104611">
        <ele>57.8165</ele>
        <time>2012-04-04T17:38:40Z</time>
      </trkpt>
      <trkpt lat="59.9491801" lon="17.710453">
        <ele>56.3745</ele>
        <time>2012-04-04T17:38:46Z</time>
      </trkpt>
      <trkpt lat="59.9491266" lon="17.710486">
        <ele>55.4131</ele>
        <time>2012-04-04T17:38:51Z</time>
      </trkpt>
      <trkpt lat="59.9490946" lon="17.7104978">
        <ele>54.4518</ele>
        <time>2012-04-04T17:38:55Z</time>
      </trkpt>
      <trkpt lat="59.9490657" lon="17.7105099">
        <ele>53.4905</ele>
        <time>2012-04-04T17:38:58Z</time>
      </trkpt>
      <trkpt lat="59.9490121" lon="17.7105445">
        <ele>53.0098</ele>
        <time>2012-04-04T17:39:02Z</time>
      </trkpt>
      <trkpt lat="59.9490052" lon="17.7105543">
        <ele>53.0098</ele>
        <time>2012-04-04T17:39:03Z</time>
      </trkpt>
      <trkpt lat="59.9489671" lon="17.7106168">
        <ele>52.0486</ele>
        <time>2012-04-04T17:39:08Z</time>
      </trkpt>
      <trkpt lat="59.9489138" lon="17.7106764">
        <ele>50.6066</ele>
        <time>2012-04-04T17:39:15Z</time>
      </trkpt>
      <trkpt lat="59.9488573" lon="17.7107502">
        <ele>49.6453</ele>
        <time>2012-04-04T17:39:23Z</time>
      </trkpt>
      <trkpt lat="59.9488074" lon="17.7107892">
        <ele>49.1646</ele>
        <time>2012-04-04T17:39:27Z</time>
      </trkpt>
      <trkpt lat="59.9487722" lon="17.7108067">
        <ele>47.7225</ele>
        <time>2012-04-04T17:39:30Z</time>
      </trkpt>
      <trkpt lat="59.94872" lon="17.7108757">
        <ele>46.7612</ele>
        <time>2012-04-04T17:39:36Z</time>
      </trkpt>
      <trkpt lat="59.9486812" lon="17.7109114">
        <ele>45.3192</ele>
        <time>2012-04-04T17:39:41Z</time>
      </trkpt>
      <trkpt lat="59.9486299" lon="17.7109796">
        <ele>43.3966</ele>
        <time>2012-04-04T17:39:48Z</time>
      </trkpt>
      <trkpt lat="59.9485952" lon="17.7110522">
        <ele>41.9547</ele>
        <time>2012-04-04T17:39:52Z</time>
      </trkpt>
      <trkpt lat="59.9485653" lon="17.7111258">
        <ele>40.9934</ele>
        <time>2012-04-04T17:39:55Z</time>
      </trkpt>
      <trkpt lat="59.9485481" lon="17.7111628">
        <ele>40.5128</ele>
        <time>2012-04-04T17:39:57Z</time>
      </trkpt>
      <trkpt lat="59.9485398" lon="17.7112569">
        <ele>40.9934</ele>
        <time>2012-04-04T17:40:02Z</time>
      </trkpt>
      <trkpt lat="59.9485403" lon="17.7112793">
        <ele>42.4354</ele>
        <time>2012-04-04T17:40:09Z</time>
      </trkpt>
      <trkpt lat="59.9485435" lon="17.7112842">
        <ele>42.916</ele>
        <time>2012-04-04T17:40:11Z</time>
      </trkpt>
      <trkpt lat="59.9485538" lon="17.7112512">
        <ele>42.916</ele>
        <time>2012-04-04T17:40:14Z</time>
      </trkpt>
      <trkpt lat="59.9485977" lon="17.7110944">
        <ele>42.4354</ele>
        <time>2012-04-04T17:40:18Z</time>
      </trkpt>
      <trkpt lat="59.9486564" lon="17.7110697">
        <ele>42.4354</ele>
        <time>2012-04-04T17:40:21Z</time>
      </trkpt>
      <trkpt lat="59.9487533" lon="17.71101">
        <ele>43.3966</ele>
        <time>2012-04-04T17:40:26Z</time>
      </trkpt>
      <trkpt lat="59.9488013" lon="17.7109875">
        <ele>44.358</ele>
        <time>2012-04-04T17:40:28Z</time>
      </trkpt>
      <trkpt lat="59.9489003" lon="17.7108744">
        <ele>44.8386</ele>
        <time>2012-04-04T17:40:33Z</time>
      </trkpt>
      <trkpt lat="59.9489446" lon="17.7106913">
        <ele>42.916</ele>
        <time>2012-04-04T17:40:38Z</time>
      </trkpt>
      <trkpt lat="59.9490314" lon="17.7105467">
        <ele>42.4354</ele>
        <time>2012-04-04T17:40:43Z</time>
      </trkpt>
      <trkpt lat="59.949124" lon="17.7104196">
        <ele>42.916</ele>
        <time>2012-04-04T17:40:48Z</time>
      </trkpt>
      <trkpt lat="59.9491825" lon="17.7103152">
        <ele>44.8386</ele>
        <time>2012-04-04T17:40:52Z</time>
      </trkpt>
      <trkpt lat="59.9492867" lon="17.7101417">
        <ele>46.7612</ele>
        <time>2012-04-04T17:40:58Z</time>
      </trkpt>
      <trkpt lat="59.9493523" lon="17.7099861">
        <ele>46.2806</ele>
        <time>2012-04-04T17:41:02Z</time>
      </trkpt>
      <trkpt lat="59.9494093" lon="17.7098094">
        <ele>47.2418</ele>
        <time>2012-04-04T17:41:07Z</time>
      </trkpt>
      <trkpt lat="59.9494934" lon="17.7095848">
        <ele>47.7225</ele>
        <time>2012-04-04T17:41:13Z</time>
      </trkpt>
      <trkpt lat="59.9495452" lon="17.7094562">
        <ele>46.7612</ele>
        <time>2012-04-04T17:41:17Z</time>
      </trkpt>
      <trkpt lat="59.9496246" lon="17.7092643">
        <ele>47.7225</ele>
        <time>2012-04-04T17:41:22Z</time>
      </trkpt>
      <trkpt lat="59.9496944" lon="17.7090718">
        <ele>48.2034</ele>
        <time>2012-04-04T17:41:27Z</time>
      </trkpt>
      <trkpt lat="59.9497576" lon="17.7088451">
        <ele>48.684</ele>
        <time>2012-04-04T17:41:32Z</time>
      </trkpt>
      <trkpt lat="59.9498256" lon="17.7086207">
        <ele>48.684</ele>
        <time>2012-04-04T17:41:37Z</time>
      </trkpt>
      <trkpt lat="59.9498413" lon="17.7085766">
        <ele>49.1646</ele>
        <time>2012-04-04T17:41:38Z</time>
      </trkpt>
      <trkpt lat="59.949897" lon="17.7083543">
        <ele>48.684</ele>
        <time>2012-04-04T17:41:43Z</time>
      </trkpt>
      <trkpt lat="59.9499665" lon="17.7081601">
        <ele>48.2034</ele>
        <time>2012-04-04T17:41:48Z</time>
      </trkpt>
      <trkpt lat="59.9500444" lon="17.7079288">
        <ele>49.1646</ele>
        <time>2012-04-04T17:41:54Z</time>
      </trkpt>
      <trkpt lat="59.9500902" lon="17.707736">
        <ele>45.3192</ele>
        <time>2012-04-04T17:41:59Z</time>
      </trkpt>
      <trkpt lat="59.9501529" lon="17.7075089">
        <ele>43.8773</ele>
        <time>2012-04-04T17:42:04Z</time>
      </trkpt>
      <trkpt lat="59.9502594" lon="17.7074136">
        <ele>42.916</ele>
        <time>2012-04-04T17:42:09Z</time>
      </trkpt>
      <trkpt lat="59.950357" lon="17.7074874">
        <ele>43.3966</ele>
        <time>2012-04-04T17:42:14Z</time>
      </trkpt>
      <trkpt lat="59.9503885" lon="17.7075638">
        <ele>44.358</ele>
        <time>2012-04-04T17:42:16Z</time>
      </trkpt>
      <trkpt lat="59.9504082" lon="17.7077394">
        <ele>45.7999</ele>
        <time>2012-04-04T17:42:21Z</time>
      </trkpt>
      <trkpt lat="59.9503141" lon="17.7078209">
        <ele>47.7225</ele>
        <time>2012-04-04T17:42:27Z</time>
      </trkpt>
      <trkpt lat="59.9502146" lon="17.7077454">
        <ele>49.1646</ele>
        <time>2012-04-04T17:42:32Z</time>
      </trkpt>
      <trkpt lat="59.9501228" lon="17.7077604">
        <ele>48.2034</ele>
        <time>2012-04-04T17:42:36Z</time>
      </trkpt>
      <trkpt lat="59.9501032" lon="17.7077695">
        <ele>47.7225</ele>
        <time>2012-04-04T17:42:37Z</time>
      </trkpt>
      <trkpt lat="59.9500363" lon="17.7078149">
        <ele>47.2418</ele>
        <time>2012-04-04T17:42:40Z</time>
      </trkpt>
      <trkpt lat="59.9499279" lon="17.7080012">
        <ele>47.7225</ele>
        <time>2012-04-04T17:42:45Z</time>
      </trkpt>
      <trkpt lat="59.9499068" lon="17.7081816">
        <ele>50.126</ele>
        <time>2012-04-04T17:42:49Z</time>
      </trkpt>
      <trkpt lat="59.9499156" lon="17.7084302">
        <ele>53.0098</ele>
        <time>2012-04-04T17:42:54Z</time>
      </trkpt>
      <trkpt lat="59.9498706" lon="17.7085706">
        <ele>54.9324</ele>
        <time>2012-04-04T17:42:58Z</time>
      </trkpt>
      <trkpt lat="59.9498466" lon="17.7086582">
        <ele>55.4131</ele>
        <time>2012-04-04T17:43:00Z</time>
      </trkpt>
      <trkpt lat="59.9497815" lon="17.7088502">
        <ele>57.3358</ele>
        <time>2012-04-04T17:43:05Z</time>
      </trkpt>
      <trkpt lat="59.9497322" lon="17.7090216">
        <ele>58.2971</ele>
        <time>2012-04-04T17:43:10Z</time>
      </trkpt>
      <trkpt lat="59.949731" lon="17.709099">
        <ele>58.7777</ele>
        <time>2012-04-04T17:43:12Z</time>
      </trkpt>
      <trkpt lat="59.9497062" lon="17.7092957">
        <ele>59.2584</ele>
        <time>2012-04-04T17:43:18Z</time>
      </trkpt>
      <trkpt lat="59.9497106" lon="17.7093299">
        <ele>59.2584</ele>
        <time>2012-04-04T17:43:19Z</time>
      </trkpt>
      <trkpt lat="59.9497229" lon="17.7094009">
        <ele>59.2584</ele>
        <time>2012-04-04T17:43:21Z</time>
      </trkpt>
      <trkpt lat="59.9497669" lon="17.7095">
        <ele>60.2197</ele>
        <time>2012-04-04T17:43:26Z</time>
      </trkpt>
      <trkpt lat="59.9497983" lon="17.7095294">
        <ele>61.6617</ele>
        <time>2012-04-04T17:43:28Z</time>
      </trkpt>
      <trkpt lat="59.9498131" lon="17.7095449">
        <ele>61.6617</ele>
        <time>2012-04-04T17:43:29Z</time>
      </trkpt>
      <trkpt lat="59.9498265" lon="17.7095407">
        <ele>63.5844</ele>
        <time>2012-04-04T17:43:39Z</time>
      </trkpt>
      <trkpt lat="59.9498747" lon="17.7095292">
        <ele>62.6229</ele>
        <time>2012-04-04T17:43:49Z</time>
      </trkpt>
      <trkpt lat="59.9498799" lon="17.709532">
        <ele>62.1423</ele>
        <time>2012-04-04T17:43:54Z</time>
      </trkpt>
      <trkpt lat="59.9498804" lon="17.7095284">
        <ele>63.1036</ele>
        <time>2012-04-04T17:44:00Z</time>
      </trkpt>
      <trkpt lat="59.9498773" lon="17.709515">
        <ele>62.6229</ele>
        <time>2012-04-04T17:44:05Z</time>
      </trkpt>
      <trkpt lat="59.9498679" lon="17.7094994">
        <ele>63.1036</ele>
        <time>2012-04-04T17:44:13Z</time>
      </trkpt>
      <trkpt lat="59.9498659" lon="17.7094751">
        <ele>63.5844</ele>
        <time>2012-04-04T17:44:19Z</time>
      </trkpt>
      <trkpt lat="59.9498699" lon="17.7094102">
        <ele>66.4683</ele>
        <time>2012-04-04T17:44:32Z</time>
      </trkpt>
      <trkpt lat="59.9498429" lon="17.7093901">
        <ele>64.5457</ele>
        <time>2012-04-04T17:44:40Z</time>
      </trkpt>
      <trkpt lat="59.9498351" lon="17.7093683">
        <ele>64.5457</ele>
        <time>2012-04-04T17:44:45Z</time>
      </trkpt>
      <trkpt lat="59.9498347" lon="17.7093331">
        <ele>64.5457</ele>
        <time>2012-04-04T17:44:47Z</time>
      </trkpt>
      <trkpt lat="59.9498373" lon="17.7092263">
        <ele>65.0264</ele>
        <time>2012-04-04T17:44:52Z</time>
      </trkpt>
      <trkpt lat="59.949841" lon="17.7091818">
        <ele>65.0264</ele>
        <time>2012-04-04T17:44:54Z</time>
      </trkpt>
      <trkpt lat="59.9498717" lon="17.7090279">
        <ele>64.0651</ele>
        <time>2012-04-04T17:45:01Z</time>
      </trkpt>
      <trkpt lat="59.9499043" lon="17.7089094">
        <ele>63.1036</ele>
        <time>2012-04-04T17:45:07Z</time>
      </trkpt>
      <trkpt lat="59.9499108" lon="17.7088901">
        <ele>62.6229</ele>
        <time>2012-04-04T17:45:08Z</time>
      </trkpt>
      <trkpt lat="59.9499498" lon="17.7087508">
        <ele>59.2584</ele>
        <time>2012-04-04T17:45:15Z</time>
      </trkpt>
      <trkpt lat="59.9499696" lon="17.7086551">
        <ele>57.3358</ele>
        <time>2012-04-04T17:45:20Z</time>
      </trkpt>
      <trkpt lat="59.9500063" lon="17.7085027">
        <ele>54.4518</ele>
        <time>2012-04-04T17:45:28Z</time>
      </trkpt>
      <trkpt lat="59.9500331" lon="17.7083619">
        <ele>51.0872</ele>
        <time>2012-04-04T17:45:35Z</time>
      </trkpt>
      <trkpt lat="59.9500566" lon="17.7082759">
        <ele>47.7225</ele>
        <time>2012-04-04T17:45:39Z</time>
      </trkpt>
      <trkpt lat="59.9500679" lon="17.7082388">
        <ele>45.7999</ele>
        <time>2012-04-04T17:45:41Z</time>
      </trkpt>
      <trkpt lat="59.9501179" lon="17.7081331">
        <ele>41.9547</ele>
        <time>2012-04-04T17:45:47Z</time>
      </trkpt>
      <trkpt lat="59.9501575" lon="17.7080638">
        <ele>40.5128</ele>
        <time>2012-04-04T17:45:51Z</time>
      </trkpt>
      <trkpt lat="59.9502374" lon="17.7080435">
        <ele>39.0707</ele>
        <time>2012-04-04T17:45:57Z</time>
      </trkpt>
      <trkpt lat="59.9502476" lon="17.7080525">
        <ele>39.0707</ele>
        <time>2012-04-04T17:45:58Z</time>
      </trkpt>
      <trkpt lat="59.9503444" lon="17.7081461">
        <ele>39.0707</ele>
        <time>2012-04-04T17:46:05Z</time>
      </trkpt>
      <trkpt lat="59.9503559" lon="17.7081638">
        <ele>39.0707</ele>
        <time>2012-04-04T17:46:06Z</time>
      </trkpt>
      <trkpt lat="59.950417" lon="17.7081899">
        <ele>38.1094</ele>
        <time>2012-04-04T17:46:10Z</time>
      </trkpt>
      <trkpt lat="59.9504445" lon="17.7082368">
        <ele>35.7061</ele>
        <time>2012-04-04T17:46:14Z</time>
      </trkpt>
      <trkpt lat="59.950516" lon="17.7083027">
        <ele>38.1094</ele>
        <time>2012-04-04T17:46:21Z</time>
      </trkpt>
      <trkpt lat="59.9505287" lon="17.7083171">
        <ele>38.1094</ele>
        <time>2012-04-04T17:46:22Z</time>
      </trkpt>
      <trkpt lat="59.9505901" lon="17.7083633">
        <ele>35.2255</ele>
        <time>2012-04-04T17:46:28Z</time>
      </trkpt>
      <trkpt lat="59.9506769" lon="17.7084306">
        <ele>35.2255</ele>
        <time>2012-04-04T17:46:34Z</time>
      </trkpt>
      <trkpt lat="59.9506874" lon="17.7084322">
        <ele>34.2642</ele>
        <time>2012-04-04T17:46:36Z</time>
      </trkpt>
      <trkpt lat="59.9507304" lon="17.7084667">
        <ele>34.2642</ele>
        <time>2012-04-04T17:46:40Z</time>
      </trkpt>
      <trkpt lat="59.9507764" lon="17.7085028">
        <ele>34.7449</ele>
        <time>2012-04-04T17:46:44Z</time>
      </trkpt>
      <trkpt lat="59.9507605" lon="17.7085498">
        <ele>34.7449</ele>
        <time>2012-04-04T17:46:51Z</time>
      </trkpt>
      <trkpt lat="59.9507732" lon="17.7085824">
        <ele>40.0321</ele>
        <time>2012-04-04T17:47:02Z</time>
      </trkpt>
      <trkpt lat="59.9507692" lon="17.7086498">
        <ele>45.7999</ele>
        <time>2012-04-04T17:47:28Z</time>
      </trkpt>
      <trkpt lat="59.9507542" lon="17.7085969">
        <ele>45.3192</ele>
        <time>2012-04-04T17:47:43Z</time>
      </trkpt>
      <trkpt lat="59.9507227" lon="17.7085752">
        <ele>43.8773</ele>
        <time>2012-04-04T17:47:47Z</time>
      </trkpt>
      <trkpt lat="59.9506869" lon="17.7085591">
        <ele>42.916</ele>
        <time>2012-04-04T17:47:50Z</time>
      </trkpt>
      <trkpt lat="59.9506738" lon="17.7085488">
        <ele>43.8773</ele>
        <time>2012-04-04T17:47:51Z</time>
      </trkpt>
      <trkpt lat="59.9505641" lon="17.7084053">
        <ele>43.8773</ele>
        <time>2012-04-04T17:47:57Z</time>
      </trkpt>
      <trkpt lat="59.9504893" lon="17.7083005">
        <ele>46.2806</ele>
        <time>2012-04-04T17:48:02Z</time>
      </trkpt>
      <trkpt lat="59.9504781" lon="17.7082808">
        <ele>46.2806</ele>
        <time>2012-04-04T17:48:03Z</time>
      </trkpt>
      <trkpt lat="59.9504491" lon="17.7082621">
        <ele>47.2418</ele>
        <time>2012-04-04T17:48:05Z</time>
      </trkpt>
      <trkpt lat="59.9503947" lon="17.7081797">
        <ele>48.684</ele>
        <time>2012-04-04T17:48:10Z</time>
      </trkpt>
      <trkpt lat="59.9503855" lon="17.7081489">
        <ele>49.6453</ele>
        <time>2012-04-04T17:48:11Z</time>
      </trkpt>
      <trkpt lat="59.9502927" lon="17.7080565">
        <ele>51.5679</ele>
        <time>2012-04-04T17:48:17Z</time>
      </trkpt>
      <trkpt lat="59.9501963" lon="17.7080435">
        <ele>50.126</ele>
        <time>2012-04-04T17:48:22Z</time>
      </trkpt>
      <trkpt lat="59.9501311" lon="17.7080618">
        <ele>50.126</ele>
        <time>2012-04-04T17:48:26Z</time>
      </trkpt>
      <trkpt lat="59.9501003" lon="17.7080946">
        <ele>50.126</ele>
        <time>2012-04-04T17:48:28Z</time>
      </trkpt>
      <trkpt lat="59.9500439" lon="17.7081507">
        <ele>51.5679</ele>
        <time>2012-04-04T17:48:31Z</time>
      </trkpt>
      <trkpt lat="59.949969" lon="17.7082778">
        <ele>52.5292</ele>
        <time>2012-04-04T17:48:36Z</time>
      </trkpt>
      <trkpt lat="59.9499323" lon="17.7083991">
        <ele>52.5292</ele>
        <time>2012-04-04T17:48:40Z</time>
      </trkpt>
      <trkpt lat="59.9499024" lon="17.7085959">
        <ele>53.0098</ele>
        <time>2012-04-04T17:48:45Z</time>
      </trkpt>
      <trkpt lat="59.949845" lon="17.7088342">
        <ele>54.9324</ele>
        <time>2012-04-04T17:48:51Z</time>
      </trkpt>
      <trkpt lat="59.9497805" lon="17.7090165">
        <ele>54.9324</ele>
        <time>2012-04-04T17:48:56Z</time>
      </trkpt>
      <trkpt lat="59.9497757" lon="17.7090527">
        <ele>54.9324</ele>
        <time>2012-04-04T17:48:57Z</time>
      </trkpt>
      <trkpt lat="59.949745" lon="17.709215">
        <ele>55.4131</ele>
        <time>2012-04-04T17:49:02Z</time>
      </trkpt>
      <trkpt lat="59.9497393" lon="17.7093253">
        <ele>55.8938</ele>
        <time>2012-04-04T17:49:05Z</time>
      </trkpt>
      <trkpt lat="59.9497427" lon="17.7093466">
        <ele>55.8938</ele>
        <time>2012-04-04T17:49:06Z</time>
      </trkpt>
      <trkpt lat="59.9497574" lon="17.7093696">
        <ele>56.3745</ele>
        <time>2012-04-04T17:49:12Z</time>
      </trkpt>
      <trkpt lat="59.9497867" lon="17.7094496">
        <ele>58.2971</ele>
        <time>2012-04-04T17:49:18Z</time>
      </trkpt>
      <trkpt lat="59.9498073" lon="17.709437">
        <ele>61.181</ele>
        <time>2012-04-04T17:49:24Z</time>
      </trkpt>
      <trkpt lat="59.949829" lon="17.7094004">
        <ele>61.6617</ele>
        <time>2012-04-04T17:49:27Z</time>
      </trkpt>
      <trkpt lat="59.9498758" lon="17.709281">
        <ele>62.1423</ele>
        <time>2012-04-04T17:49:33Z</time>
      </trkpt>
      <trkpt lat="59.9499186" lon="17.709187">
        <ele>61.6617</ele>
        <time>2012-04-04T17:49:38Z</time>
      </trkpt>
      <trkpt lat="59.9499561" lon="17.7090728">
        <ele>62.6229</ele>
        <time>2012-04-04T17:49:42Z</time>
      </trkpt>
      <trkpt lat="59.9499789" lon="17.70903">
        <ele>63.5844</ele>
        <time>2012-04-04T17:49:44Z</time>
      </trkpt>
      <trkpt lat="59.9500047" lon="17.7089756">
        <ele>63.5844</ele>
        <time>2012-04-04T17:49:47Z</time>
      </trkpt>
      <trkpt lat="59.9500378" lon="17.7088715">
        <ele>63.1036</ele>
        <time>2012-04-04T17:49:52Z</time>
      </trkpt>
      <trkpt lat="59.9500449" lon="17.7088306">
        <ele>63.1036</ele>
        <time>2012-04-04T17:49:54Z</time>
      </trkpt>
      <trkpt lat="59.9500837" lon="17.7086675">
        <ele>61.181</ele>
        <time>2012-04-04T17:50:01Z</time>
      </trkpt>
      <trkpt lat="59.9500954" lon="17.7085769">
        <ele>58.2971</ele>
        <time>2012-04-04T17:50:05Z</time>
      </trkpt>
      <trkpt lat="59.9500943" lon="17.7085154">
        <ele>56.8551</ele>
        <time>2012-04-04T17:50:08Z</time>
      </trkpt>
      <trkpt lat="59.9501126" lon="17.7084182">
        <ele>54.9324</ele>
        <time>2012-04-04T17:50:13Z</time>
      </trkpt>
      <trkpt lat="59.9501392" lon="17.7082965">
        <ele>51.5679</ele>
        <time>2012-04-04T17:50:19Z</time>
      </trkpt>
      <trkpt lat="59.950177" lon="17.70821">
        <ele>47.7225</ele>
        <time>2012-04-04T17:50:24Z</time>
      </trkpt>
      <trkpt lat="59.9502105" lon="17.7081489">
        <ele>44.8386</ele>
        <time>2012-04-04T17:50:28Z</time>
      </trkpt>
      <trkpt lat="59.9502434" lon="17.7081225">
        <ele>41.9547</ele>
        <time>2012-04-04T17:50:31Z</time>
      </trkpt>
      <trkpt lat="59.9503259" lon="17.7081686">
        <ele>40.0321</ele>
        <time>2012-04-04T17:50:37Z</time>
      </trkpt>
      <trkpt lat="59.9503547" lon="17.708194">
        <ele>39.0707</ele>
        <time>2012-04-04T17:50:41Z</time>
      </trkpt>
      <trkpt lat="59.9504191" lon="17.7082597">
        <ele>38.1094</ele>
        <time>2012-04-04T17:50:48Z</time>
      </trkpt>
      <trkpt lat="59.9504681" lon="17.7083245">
        <ele>38.1094</ele>
        <time>2012-04-04T17:50:53Z</time>
      </trkpt>
      <trkpt lat="59.9504792" lon="17.7083396">
        <ele>38.1094</ele>
        <time>2012-04-04T17:50:54Z</time>
      </trkpt>
      <trkpt lat="59.9505548" lon="17.7084198">
        <ele>38.1094</ele>
        <time>2012-04-04T17:51:01Z</time>
      </trkpt>
      <trkpt lat="59.9506238" lon="17.7084964">
        <ele>37.1481</ele>
        <time>2012-04-04T17:51:06Z</time>
      </trkpt>
      <trkpt lat="59.9507015" lon="17.7085419">
        <ele>38.5901</ele>
        <time>2012-04-04T17:51:12Z</time>
      </trkpt>
      <trkpt lat="59.9507807" lon="17.7085662">
        <ele>38.5901</ele>
        <time>2012-04-04T17:51:17Z</time>
      </trkpt>
      <trkpt lat="59.9508143" lon="17.7085766">
        <ele>37.6287</ele>
        <time>2012-04-04T17:51:21Z</time>
      </trkpt>
      <trkpt lat="59.950836" lon="17.7085949">
        <ele>37.1481</ele>
        <time>2012-04-04T17:51:26Z</time>
      </trkpt>
      <trkpt lat="59.9508338" lon="17.7085805">
        <ele>38.5901</ele>
        <time>2012-04-04T17:51:36Z</time>
      </trkpt>
      <trkpt lat="59.950837" lon="17.7085384">
        <ele>42.4354</ele>
        <time>2012-04-04T17:51:51Z</time>
      </trkpt>
      <trkpt lat="59.950835" lon="17.708538">
        <ele>42.4354</ele>
        <time>2012-04-04T17:51:52Z</time>
      </trkpt>
      <trkpt lat="59.950803" lon="17.7085426">
        <ele>41.9547</ele>
        <time>2012-04-04T17:51:55Z</time>
      </trkpt>
      <trkpt lat="59.9507096" lon="17.7085346">
        <ele>41.474</ele>
        <time>2012-04-04T17:51:59Z</time>
      </trkpt>
      <trkpt lat="59.9505764" lon="17.708442">
        <ele>43.3966</ele>
        <time>2012-04-04T17:52:05Z</time>
      </trkpt>
      <trkpt lat="59.9505041" lon="17.7084242">
        <ele>47.2418</ele>
        <time>2012-04-04T17:52:09Z</time>
      </trkpt>
      <trkpt lat="59.9504502" lon="17.7082979">
        <ele>50.6066</ele>
        <time>2012-04-04T17:52:14Z</time>
      </trkpt>
      <trkpt lat="59.950401" lon="17.7082753">
        <ele>54.4518</ele>
        <time>2012-04-04T17:52:17Z</time>
      </trkpt>
      <trkpt lat="59.9503472" lon="17.708224">
        <ele>55.8938</ele>
        <time>2012-04-04T17:52:20Z</time>
      </trkpt>
      <trkpt lat="59.950214" lon="17.7081872">
        <ele>55.8938</ele>
        <time>2012-04-04T17:52:26Z</time>
      </trkpt>
      <trkpt lat="59.9501597" lon="17.708239">
        <ele>54.9324</ele>
        <time>2012-04-04T17:52:30Z</time>
      </trkpt>
      <trkpt lat="59.9500995" lon="17.7083498">
        <ele>54.4518</ele>
        <time>2012-04-04T17:52:34Z</time>
      </trkpt>
      <trkpt lat="59.9500834" lon="17.7084116">
        <ele>55.4131</ele>
        <time>2012-04-04T17:52:36Z</time>
      </trkpt>
      <trkpt lat="59.9500725" lon="17.7085453">
        <ele>55.4131</ele>
        <time>2012-04-04T17:52:40Z</time>
      </trkpt>
      <trkpt lat="59.9500639" lon="17.708602">
        <ele>56.3745</ele>
        <time>2012-04-04T17:52:42Z</time>
      </trkpt>
      <trkpt lat="59.9500584" lon="17.7087814">
        <ele>58.2971</ele>
        <time>2012-04-04T17:52:47Z</time>
      </trkpt>
      <trkpt lat="59.9500352" lon="17.7088695">
        <ele>59.2584</ele>
        <time>2012-04-04T17:52:50Z</time>
      </trkpt>
      <trkpt lat="59.950027" lon="17.7088922">
        <ele>59.7391</ele>
        <time>2012-04-04T17:52:51Z</time>
      </trkpt>
      <trkpt lat="59.9500233" lon="17.7089108">
        <ele>59.7391</ele>
        <time>2012-04-04T17:52:52Z</time>
      </trkpt>
      <trkpt lat="59.95" lon="17.7090399">
        <ele>60.2197</ele>
        <time>2012-04-04T17:52:55Z</time>
      </trkpt>
      <trkpt lat="59.9499798" lon="17.7091123">
        <ele>59.7391</ele>
        <time>2012-04-04T17:52:58Z</time>
      </trkpt>
      <trkpt lat="59.9499333" lon="17.7092492">
        <ele>58.2971</ele>
        <time>2012-04-04T17:53:03Z</time>
      </trkpt>
      <trkpt lat="59.9498955" lon="17.709347">
        <ele>58.2971</ele>
        <time>2012-04-04T17:53:09Z</time>
      </trkpt>
      <trkpt lat="59.949885" lon="17.7094645">
        <ele>58.2971</ele>
        <time>2012-04-04T17:53:14Z</time>
      </trkpt>
      <trkpt lat="59.9498591" lon="17.7095128">
        <ele>57.8165</ele>
        <time>2012-04-04T17:53:18Z</time>
      </trkpt>
      <trkpt lat="59.9498507" lon="17.709583">
        <ele>58.7777</ele>
        <time>2012-04-04T17:53:24Z</time>
      </trkpt>
      <trkpt lat="59.9498457" lon="17.7095359">
        <ele>56.8551</ele>
        <time>2012-04-04T17:53:34Z</time>
      </trkpt>
      <trkpt lat="59.9498332" lon="17.7094547">
        <ele>57.8165</ele>
        <time>2012-04-04T17:53:42Z</time>
      </trkpt>
      <trkpt lat="59.9498384" lon="17.7094449">
        <ele>58.7777</ele>
        <time>2012-04-04T17:53:45Z</time>
      </trkpt>
      <trkpt lat="59.9498422" lon="17.7094409">
        <ele>59.7391</ele>
        <time>2012-04-04T17:53:50Z</time>
      </trkpt>
      <trkpt lat="59.949841" lon="17.7094414">
        <ele>60.2197</ele>
        <time>2012-04-04T17:53:57Z</time>
      </trkpt>
      <trkpt lat="59.949841" lon="17.7094318">
        <ele>60.2197</ele>
        <time>2012-04-04T17:54:04Z</time>
      </trkpt>
      <trkpt lat="59.9498434" lon="17.7094227">
        <ele>60.2197</ele>
        <time>2012-04-04T17:54:10Z</time>
      </trkpt>
      <trkpt lat="59.9498494" lon="17.7093888">
        <ele>60.7003</ele>
        <time>2012-04-04T17:54:17Z</time>
      </trkpt>
      <trkpt lat="59.9498746" lon="17.709303">
        <ele>60.7003</ele>
        <time>2012-04-04T17:54:22Z</time>
      </trkpt>
      <trkpt lat="59.9498969" lon="17.7092498">
        <ele>60.2197</ele>
        <time>2012-04-04T17:54:25Z</time>
      </trkpt>
      <trkpt lat="59.9499317" lon="17.7091384">
        <ele>60.2197</ele>
        <time>2012-04-04T17:54:31Z</time>
      </trkpt>
      <trkpt lat="59.9499753" lon="17.7090247">
        <ele>59.7391</ele>
        <time>2012-04-04T17:54:37Z</time>
      </trkpt>
      <trkpt lat="59.950024" lon="17.7090246">
        <ele>60.7003</ele>
        <time>2012-04-04T17:54:41Z</time>
      </trkpt>
      <trkpt lat="59.9500962" lon="17.7091195">
        <ele>60.7003</ele>
        <time>2012-04-04T17:54:48Z</time>
      </trkpt>
      <trkpt lat="59.9501321" lon="17.7091674">
        <ele>59.7391</ele>
        <time>2012-04-04T17:54:52Z</time>
      </trkpt>
      <trkpt lat="59.9501963" lon="17.7092657">
        <ele>57.3358</ele>
        <time>2012-04-04T17:55:00Z</time>
      </trkpt>
      <trkpt lat="59.9502669" lon="17.7093558">
        <ele>55.8938</ele>
        <time>2012-04-04T17:55:08Z</time>
      </trkpt>
      <trkpt lat="59.9502837" lon="17.7093826">
        <ele>55.8938</ele>
        <time>2012-04-04T17:55:10Z</time>
      </trkpt>
      <trkpt lat="59.950358" lon="17.7094813">
        <ele>54.4518</ele>
        <time>2012-04-04T17:55:19Z</time>
      </trkpt>
      <trkpt lat="59.950378" lon="17.7094952">
        <ele>53.4905</ele>
        <time>2012-04-04T17:55:21Z</time>
      </trkpt>
      <trkpt lat="59.9504236" lon="17.7095708">
        <ele>51.5679</ele>
        <time>2012-04-04T17:55:27Z</time>
      </trkpt>
      <trkpt lat="59.9504886" lon="17.7096571">
        <ele>47.7225</ele>
        <time>2012-04-04T17:55:36Z</time>
      </trkpt>
      <trkpt lat="59.9505528" lon="17.7097139">
        <ele>44.8386</ele>
        <time>2012-04-04T17:55:43Z</time>
      </trkpt>
      <trkpt lat="59.950618" lon="17.7097729">
        <ele>41.474</ele>
        <time>2012-04-04T17:55:50Z</time>
      </trkpt>
      <trkpt lat="59.9506556" lon="17.7098195">
        <ele>40.9934</ele>
        <time>2012-04-04T17:55:54Z</time>
      </trkpt>
      <trkpt lat="59.9506704" lon="17.7098671">
        <ele>40.5128</ele>
        <time>2012-04-04T17:55:59Z</time>
      </trkpt>
      <trkpt lat="59.9506491" lon="17.7098594">
        <ele>40.9934</ele>
        <time>2012-04-04T17:56:03Z</time>
      </trkpt>
      <trkpt lat="59.9506437" lon="17.7098555">
        <ele>40.9934</ele>
        <time>2012-04-04T17:56:04Z</time>
      </trkpt>
      <trkpt lat="59.9506171" lon="17.7098319">
        <ele>41.474</ele>
        <time>2012-04-04T17:56:06Z</time>
      </trkpt>
      <trkpt lat="59.9504871" lon="17.7097194">
        <ele>41.474</ele>
        <time>2012-04-04T17:56:13Z</time>
      </trkpt>
      <trkpt lat="59.9504729" lon="17.709712">
        <ele>41.9547</ele>
        <time>2012-04-04T17:56:14Z</time>
      </trkpt>
      <trkpt lat="59.9503728" lon="17.7096219">
        <ele>45.3192</ele>
        <time>2012-04-04T17:56:21Z</time>
      </trkpt>
      <trkpt lat="59.9503315" lon="17.7095831">
        <ele>47.2418</ele>
        <time>2012-04-04T17:56:24Z</time>
      </trkpt>
      <trkpt lat="59.9502714" lon="17.7094958">
        <ele>50.6066</ele>
        <time>2012-04-04T17:56:29Z</time>
      </trkpt>
      <trkpt lat="59.9502563" lon="17.7094724">
        <ele>51.0872</ele>
        <time>2012-04-04T17:56:30Z</time>
      </trkpt>
      <trkpt lat="59.9501899" lon="17.7093282">
        <ele>52.0486</ele>
        <time>2012-04-04T17:56:36Z</time>
      </trkpt>
      <trkpt lat="59.9501228" lon="17.7092454">
        <ele>53.4905</ele>
        <time>2012-04-04T17:56:42Z</time>
      </trkpt>
      <trkpt lat="59.9500752" lon="17.7091538">
        <ele>54.4518</ele>
        <time>2012-04-04T17:56:46Z</time>
      </trkpt>
      <trkpt lat="59.9500454" lon="17.7090918">
        <ele>55.4131</ele>
        <time>2012-04-04T17:56:50Z</time>
      </trkpt>
      <trkpt lat="59.9500409" lon="17.7090828">
        <ele>55.4131</ele>
        <time>2012-04-04T17:56:51Z</time>
      </trkpt>
      <trkpt lat="59.9500423" lon="17.7090953">
        <ele>57.3358</ele>
        <time>2012-04-04T17:56:58Z</time>
      </trkpt>
      <trkpt lat="59.9500682" lon="17.7090852">
        <ele>58.2971</ele>
        <time>2012-04-04T17:57:04Z</time>
      </trkpt>
      <trkpt lat="59.9501233" lon="17.7091513">
        <ele>57.8165</ele>
        <time>2012-04-04T17:57:12Z</time>
      </trkpt>
      <trkpt lat="59.9501689" lon="17.7092542">
        <ele>56.8551</ele>
        <time>2012-04-04T17:57:20Z</time>
      </trkpt>
      <trkpt lat="59.9502192" lon="17.7093341">
        <ele>54.9324</ele>
        <time>2012-04-04T17:57:28Z</time>
      </trkpt>
      <trkpt lat="59.9502734" lon="17.7094204">
        <ele>51.5679</ele>
        <time>2012-04-04T17:57:35Z</time>
      </trkpt>
      <trkpt lat="59.9502941" lon="17.7094812">
        <ele>49.6453</ele>
        <time>2012-04-04T17:57:39Z</time>
      </trkpt>
      <trkpt lat="59.9503008" lon="17.7095027">
        <ele>49.6453</ele>
        <time>2012-04-04T17:57:40Z</time>
      </trkpt>
      <trkpt lat="59.9503407" lon="17.7095916">
        <ele>48.684</ele>
        <time>2012-04-04T17:57:45Z</time>
      </trkpt>
      <trkpt lat="59.950422" lon="17.7096103">
        <ele>43.3966</ele>
        <time>2012-04-04T17:57:53Z</time>
      </trkpt>
      <trkpt lat="59.9504705" lon="17.7096501">
        <ele>41.9547</ele>
        <time>2012-04-04T17:57:59Z</time>
      </trkpt>
      <trkpt lat="59.9505083" lon="17.7096594">
        <ele>40.9934</ele>
        <time>2012-04-04T17:58:03Z</time>
      </trkpt>
      <trkpt lat="59.9505698" lon="17.7097344">
        <ele>40.9934</ele>
        <time>2012-04-04T17:58:09Z</time>
      </trkpt>
      <trkpt lat="59.9506004" lon="17.709751">
        <ele>40.0321</ele>
        <time>2012-04-04T17:58:13Z</time>
      </trkpt>
      <trkpt lat="59.9506487" lon="17.7097816">
        <ele>40.5128</ele>
        <time>2012-04-04T17:58:19Z</time>
      </trkpt>
      <trkpt lat="59.9506798" lon="17.7098338">
        <ele>41.474</ele>
        <time>2012-04-04T17:58:22Z</time>
      </trkpt>
      <trkpt lat="59.9507978" lon="17.7098831">
        <ele>43.3966</ele>
        <time>2012-04-04T17:58:30Z</time>
      </trkpt>
      <trkpt lat="59.950875" lon="17.7099203">
        <ele>43.3966</ele>
        <time>2012-04-04T17:58:36Z</time>
      </trkpt>
      <trkpt lat="59.9508856" lon="17.7099275">
        <ele>42.916</ele>
        <time>2012-04-04T17:58:37Z</time>
      </trkpt>
      <trkpt lat="59.9509462" lon="17.7099425">
        <ele>43.3966</ele>
        <time>2012-04-04T17:58:43Z</time>
      </trkpt>
      <trkpt lat="59.9509993" lon="17.7099726">
        <ele>41.9547</ele>
        <time>2012-04-04T17:58:47Z</time>
      </trkpt>
      <trkpt lat="59.9510602" lon="17.7100153">
        <ele>41.474</ele>
        <time>2012-04-04T17:58:52Z</time>
      </trkpt>
      <trkpt lat="59.9511183" lon="17.7100104">
        <ele>40.0321</ele>
        <time>2012-04-04T17:58:57Z</time>
      </trkpt>
      <trkpt lat="59.9512121" lon="17.7099898">
        <ele>38.5901</ele>
        <time>2012-04-04T17:59:04Z</time>
      </trkpt>
      <trkpt lat="59.951292" lon="17.7099843">
        <ele>38.5901</ele>
        <time>2012-04-04T17:59:10Z</time>
      </trkpt>
      <trkpt lat="59.9513956" lon="17.709956">
        <ele>38.5901</ele>
        <time>2012-04-04T17:59:17Z</time>
      </trkpt>
      <trkpt lat="59.9514914" lon="17.7098939">
        <ele>36.1868</ele>
        <time>2012-04-04T17:59:25Z</time>
      </trkpt>
      <trkpt lat="59.9515818" lon="17.7098437">
        <ele>36.6675</ele>
        <time>2012-04-04T17:59:32Z</time>
      </trkpt>
      <trkpt lat="59.951681" lon="17.7097965">
        <ele>38.1094</ele>
        <time>2012-04-04T17:59:40Z</time>
      </trkpt>
      <trkpt lat="59.9517232" lon="17.7097635">
        <ele>37.6287</ele>
        <time>2012-04-04T17:59:43Z</time>
      </trkpt>
      <trkpt lat="59.9518379" lon="17.7096859">
        <ele>37.1481</ele>
        <time>2012-04-04T17:59:51Z</time>
      </trkpt>
      <trkpt lat="59.9519322" lon="17.7096734">
        <ele>38.5901</ele>
        <time>2012-04-04T17:59:58Z</time>
      </trkpt>
      <trkpt lat="59.9519752" lon="17.7097064">
        <ele>39.0707</ele>
        <time>2012-04-04T18:00:01Z</time>
      </trkpt>
      <trkpt lat="59.9520839" lon="17.7097625">
        <ele>38.1094</ele>
        <time>2012-04-04T18:00:09Z</time>
      </trkpt>
      <trkpt lat="59.952187" lon="17.7098096">
        <ele>38.1094</ele>
        <time>2012-04-04T18:00:16Z</time>
      </trkpt>
      <trkpt lat="59.9522473" lon="17.7098324">
        <ele>37.1481</ele>
        <time>2012-04-04T18:00:21Z</time>
      </trkpt>
      <trkpt lat="59.9523474" lon="17.7099023">
        <ele>36.6675</ele>
        <time>2012-04-04T18:00:29Z</time>
      </trkpt>
      <trkpt lat="59.9524346" lon="17.7100013">
        <ele>37.1481</ele>
        <time>2012-04-04T18:00:36Z</time>
      </trkpt>
      <trkpt lat="59.9525226" lon="17.7100935">
        <ele>37.1481</ele>
        <time>2012-04-04T18:00:43Z</time>
      </trkpt>
      <trkpt lat="59.9525912" lon="17.7101794">
        <ele>36.1868</ele>
        <time>2012-04-04T18:00:49Z</time>
      </trkpt>
      <trkpt lat="59.9526414" lon="17.7102352">
        <ele>36.6675</ele>
        <time>2012-04-04T18:00:53Z</time>
      </trkpt>
      <trkpt lat="59.9527033" lon="17.7102816">
        <ele>34.7449</ele>
        <time>2012-04-04T18:00:57Z</time>
      </trkpt>
      <trkpt lat="59.9527976" lon="17.7104119">
        <ele>36.1868</ele>
        <time>2012-04-04T18:01:04Z</time>
      </trkpt>
      <trkpt lat="59.9528914" lon="17.7105474">
        <ele>33.7834</ele>
        <time>2012-04-04T18:01:12Z</time>
      </trkpt>
      <trkpt lat="59.9529558" lon="17.7106864">
        <ele>31.3801</ele>
        <time>2012-04-04T18:01:19Z</time>
      </trkpt>
      <trkpt lat="59.9530237" lon="17.7109169">
        <ele>32.3416</ele>
        <time>2012-04-04T18:01:28Z</time>
      </trkpt>
      <trkpt lat="59.9530858" lon="17.7110264">
        <ele>32.8223</ele>
        <time>2012-04-04T18:01:34Z</time>
      </trkpt>
      <trkpt lat="59.9531462" lon="17.7111239">
        <ele>33.7834</ele>
        <time>2012-04-04T18:01:39Z</time>
      </trkpt>
      <trkpt lat="59.9532246" lon="17.711221">
        <ele>36.1868</ele>
        <time>2012-04-04T18:01:45Z</time>
      </trkpt>
      <trkpt lat="59.9532806" lon="17.7113656">
        <ele>38.1094</ele>
        <time>2012-04-04T18:01:51Z</time>
      </trkpt>
      <trkpt lat="59.9533444" lon="17.7114879">
        <ele>39.5513</ele>
        <time>2012-04-04T18:01:57Z</time>
      </trkpt>
      <trkpt lat="59.9534054" lon="17.7115987">
        <ele>40.0321</ele>
        <time>2012-04-04T18:02:03Z</time>
      </trkpt>
      <trkpt lat="59.9534638" lon="17.7116962">
        <ele>41.474</ele>
        <time>2012-04-04T18:02:09Z</time>
      </trkpt>
      <trkpt lat="59.9534898" lon="17.7117299">
        <ele>41.474</ele>
        <time>2012-04-04T18:02:11Z</time>
      </trkpt>
      <trkpt lat="59.9535209" lon="17.7117908">
        <ele>42.4354</ele>
        <time>2012-04-04T18:02:15Z</time>
      </trkpt>
      <trkpt lat="59.9536164" lon="17.7119044">
        <ele>44.358</ele>
        <time>2012-04-04T18:02:22Z</time>
      </trkpt>
      <trkpt lat="59.9536623" lon="17.7119744">
        <ele>44.8386</ele>
        <time>2012-04-04T18:02:26Z</time>
      </trkpt>
      <trkpt lat="59.9536849" lon="17.7120061">
        <ele>45.7999</ele>
        <time>2012-04-04T18:02:30Z</time>
      </trkpt>
      <trkpt lat="59.9536985" lon="17.7120298">
        <ele>45.7999</ele>
        <time>2012-04-04T18:02:32Z</time>
      </trkpt>
      <trkpt lat="59.9537321" lon="17.7121505">
        <ele>45.7999</ele>
        <time>2012-04-04T18:02:39Z</time>
      </trkpt>
      <trkpt lat="59.9537468" lon="17.7121831">
        <ele>46.2806</ele>
        <time>2012-04-04T18:02:41Z</time>
      </trkpt>
      <trkpt lat="59.9537877" lon="17.7122659">
        <ele>45.7999</ele>
        <time>2012-04-04T18:02:46Z</time>
      </trkpt>
      <trkpt lat="59.9538192" lon="17.7123308">
        <ele>45.7999</ele>
        <time>2012-04-04T18:02:50Z</time>
      </trkpt>
      <trkpt lat="59.9539041" lon="17.7124726">
        <ele>44.358</ele>
        <time>2012-04-04T18:03:00Z</time>
      </trkpt>
      <trkpt lat="59.9539628" lon="17.7125631">
        <ele>42.916</ele>
        <time>2012-04-04T18:03:06Z</time>
      </trkpt>
      <trkpt lat="59.95397" lon="17.7125727">
        <ele>42.4354</ele>
        <time>2012-04-04T18:03:07Z</time>
      </trkpt>
      <trkpt lat="59.9540492" lon="17.7125767">
        <ele>40.9934</ele>
        <time>2012-04-04T18:03:13Z</time>
      </trkpt>
      <trkpt lat="59.9541358" lon="17.7124706">
        <ele>39.0707</ele>
        <time>2012-04-04T18:03:20Z</time>
      </trkpt>
      <trkpt lat="59.9541906" lon="17.7123303">
        <ele>38.1094</ele>
        <time>2012-04-04T18:03:27Z</time>
      </trkpt>
      <trkpt lat="59.954258" lon="17.7122863">
        <ele>37.6287</ele>
        <time>2012-04-04T18:03:32Z</time>
      </trkpt>
      <trkpt lat="59.9543434" lon="17.7123536">
        <ele>38.1094</ele>
        <time>2012-04-04T18:03:38Z</time>
      </trkpt>
      <trkpt lat="59.9544063" lon="17.7124778">
        <ele>38.5901</ele>
        <time>2012-04-04T18:03:44Z</time>
      </trkpt>
      <trkpt lat="59.9545477" lon="17.7126686">
        <ele>39.5513</ele>
        <time>2012-04-04T18:03:53Z</time>
      </trkpt>
      <trkpt lat="59.9546025" lon="17.712782">
        <ele>40.5128</ele>
        <time>2012-04-04T18:03:59Z</time>
      </trkpt>
      <trkpt lat="59.9546899" lon="17.712899">
        <ele>41.474</ele>
        <time>2012-04-04T18:04:05Z</time>
      </trkpt>
      <trkpt lat="59.954733" lon="17.7130374">
        <ele>41.474</ele>
        <time>2012-04-04T18:04:11Z</time>
      </trkpt>
      <trkpt lat="59.9547821" lon="17.7132202">
        <ele>41.474</ele>
        <time>2012-04-04T18:04:18Z</time>
      </trkpt>
      <trkpt lat="59.9548434" lon="17.7133186">
        <ele>42.4354</ele>
        <time>2012-04-04T18:04:22Z</time>
      </trkpt>
      <trkpt lat="59.9549161" lon="17.7134699">
        <ele>41.9547</ele>
        <time>2012-04-04T18:04:29Z</time>
      </trkpt>
      <trkpt lat="59.9549663" lon="17.7135797">
        <ele>41.9547</ele>
        <time>2012-04-04T18:04:34Z</time>
      </trkpt>
      <trkpt lat="59.9550354" lon="17.7137214">
        <ele>40.5128</ele>
        <time>2012-04-04T18:04:41Z</time>
      </trkpt>
      <trkpt lat="59.9550978" lon="17.7138183">
        <ele>40.5128</ele>
        <time>2012-04-04T18:04:46Z</time>
      </trkpt>
      <trkpt lat="59.9551593" lon="17.7139413">
        <ele>39.0707</ele>
        <time>2012-04-04T18:04:53Z</time>
      </trkpt>
      <trkpt lat="59.9552393" lon="17.7140582">
        <ele>40.0321</ele>
        <time>2012-04-04T18:05:00Z</time>
      </trkpt>
      <trkpt lat="59.9552972" lon="17.7141478">
        <ele>41.474</ele>
        <time>2012-04-04T18:05:06Z</time>
      </trkpt>
      <trkpt lat="59.9553329" lon="17.7142061">
        <ele>42.916</ele>
        <time>2012-04-04T18:05:11Z</time>
      </trkpt>
      <trkpt lat="59.9553547" lon="17.7142703">
        <ele>43.8773</ele>
        <time>2012-04-04T18:05:14Z</time>
      </trkpt>
      <trkpt lat="59.9554075" lon="17.7144122">
        <ele>45.3192</ele>
        <time>2012-04-04T18:05:20Z</time>
      </trkpt>
      <trkpt lat="59.9554432" lon="17.7145302">
        <ele>45.3192</ele>
        <time>2012-04-04T18:05:25Z</time>
      </trkpt>
      <trkpt lat="59.9554734" lon="17.714638">
        <ele>45.3192</ele>
        <time>2012-04-04T18:05:29Z</time>
      </trkpt>
    </trkseg>
  </trk>
</gpx>